sensor_id;sensor_type;location;lat;lon;timestamp;P1;durP1;ratioP1;P2;durP2;ratioP2
19903;SDS011;10114;50.970;4.962;2023-08-17T00:01:54;6.07;;;2.15;;
19903;SDS011;10114;50.970;4.962;2023-08-17T00:04:20;8.52;;;2.63;;
19903;SDS011;10114;50.970;4.962;2023-08-17T00:06:46;5.07;;;2.30;;
19903;SDS011;10114;50.970;4.962;2023-08-17T00:09:12;6.18;;;2.30;;
19903;SDS011;10114;50.970;4.962;2023-08-17T00:11:38;6.05;;;1.92;;
19903;SDS011;10114;50.970;4.962;2023-08-17T00:14:04;5.10;;;2.05;;
19903;SDS011;10114;50.970;4.962;2023-08-17T00:16:30;6.32;;;2.40;;
19903;SDS011;10114;50.970;4.962;2023-08-17T00:18:56;7.50;;;2.30;;
19903;SDS011;10114;50.970;4.962;2023-08-17T00:21:23;7.00;;;2.25;;
19903;SDS011;10114;50.970;4.962;2023-08-17T00:23:49;5.40;;;2.35;;
19903;SDS011;10114;50.970;4.962;2023-08-17T00:26:16;8.38;;;2.35;;
19903;SDS011;10114;50.970;4.962;2023-08-17T00:28:42;4.22;;;2.17;;
19903;SDS011;10114;50.970;4.962;2023-08-17T00:31:09;6.00;;;2.40;;
19903;SDS011;10114;50.970;4.962;2023-08-17T00:33:35;5.60;;;2.35;;
19903;SDS011;10114;50.970;4.962;2023-08-17T00:36:01;7.35;;;2.72;;
19903;SDS011;10114;50.970;4.962;2023-08-17T00:38:27;5.60;;;2.35;;
19903;SDS011;10114;50.970;4.962;2023-08-17T00:40:53;6.97;;;2.28;;
19903;SDS011;10114;50.970;4.962;2023-08-17T00:43:20;6.22;;;2.42;;
19903;SDS011;10114;50.970;4.962;2023-08-17T00:45:46;4.75;;;2.10;;
19903;SDS011;10114;50.970;4.962;2023-08-17T00:48:12;5.55;;;2.60;;
19903;SDS011;10114;50.970;4.962;2023-08-17T00:50:38;4.95;;;2.40;;
19903;SDS011;10114;50.970;4.962;2023-08-17T00:53:05;8.32;;;2.50;;
19903;SDS011;10114;50.970;4.962;2023-08-17T00:55:32;7.60;;;2.30;;
19903;SDS011;10114;50.970;4.962;2023-08-17T00:57:58;6.78;;;2.35;;
19903;SDS011;10114;50.970;4.962;2023-08-17T01:00:25;5.82;;;2.20;;
19903;SDS011;10114;50.970;4.962;2023-08-17T01:02:54;4.47;;;2.42;;
19903;SDS011;10114;50.970;4.962;2023-08-17T01:05:20;4.68;;;2.30;;
19903;SDS011;10114;50.970;4.962;2023-08-17T01:07:46;8.05;;;3.67;;
19903;SDS011;10114;50.970;4.962;2023-08-17T01:10:13;7.65;;;2.50;;
19903;SDS011;10114;50.970;4.962;2023-08-17T01:15:26;7.15;;;2.53;;
19903;SDS011;10114;50.970;4.962;2023-08-17T01:17:58;5.75;;;2.50;;
19903;SDS011;10114;50.970;4.962;2023-08-17T01:20:26;5.43;;;2.45;;
19903;SDS011;10114;50.970;4.962;2023-08-17T01:22:55;7.70;;;2.50;;
19903;SDS011;10114;50.970;4.962;2023-08-17T01:25:24;6.22;;;2.60;;
19903;SDS011;10114;50.970;4.962;2023-08-17T01:27:50;7.55;;;2.63;;
19903;SDS011;10114;50.970;4.962;2023-08-17T01:30:16;4.90;;;2.45;;
19903;SDS011;10114;50.970;4.962;2023-08-17T01:35:33;8.52;;;2.50;;
19903;SDS011;10114;50.970;4.962;2023-08-17T01:37:59;4.90;;;2.50;;
19903;SDS011;10114;50.970;4.962;2023-08-17T01:40:31;7.18;;;2.63;;
19903;SDS011;10114;50.970;4.962;2023-08-17T01:42:58;5.25;;;2.78;;
19903;SDS011;10114;50.970;4.962;2023-08-17T01:45:24;7.18;;;2.85;;
19903;SDS011;10114;50.970;4.962;2023-08-17T01:47:51;6.57;;;2.95;;
19903;SDS011;10114;50.970;4.962;2023-08-17T01:50:17;7.13;;;3.08;;
19903;SDS011;10114;50.970;4.962;2023-08-17T01:52:43;6.97;;;2.85;;
19903;SDS011;10114;50.970;4.962;2023-08-17T01:55:09;6.40;;;3.03;;
19903;SDS011;10114;50.970;4.962;2023-08-17T01:57:35;6.32;;;2.60;;
19903;SDS011;10114;50.970;4.962;2023-08-17T02:00:02;12.25;;;3.00;;
19903;SDS011;10114;50.970;4.962;2023-08-17T02:02:29;8.73;;;2.85;;
19903;SDS011;10114;50.970;4.962;2023-08-17T02:04:55;8.80;;;2.80;;
19903;SDS011;10114;50.970;4.962;2023-08-17T02:07:21;8.50;;;2.95;;
19903;SDS011;10114;50.970;4.962;2023-08-17T02:09:47;7.10;;;2.90;;
19903;SDS011;10114;50.970;4.962;2023-08-17T02:12:13;5.93;;;3.03;;
19903;SDS011;10114;50.970;4.962;2023-08-17T02:14:39;6.10;;;2.80;;
19903;SDS011;10114;50.970;4.962;2023-08-17T02:17:05;6.97;;;2.60;;
19903;SDS011;10114;50.970;4.962;2023-08-17T02:19:33;5.15;;;2.90;;
19903;SDS011;10114;50.970;4.962;2023-08-17T02:22:00;7.90;;;3.08;;
19903;SDS011;10114;50.970;4.962;2023-08-17T02:24:26;6.38;;;2.70;;
19903;SDS011;10114;50.970;4.962;2023-08-17T02:26:52;12.82;;;3.20;;
19903;SDS011;10114;50.970;4.962;2023-08-17T02:29:18;6.18;;;2.60;;
19903;SDS011;10114;50.970;4.962;2023-08-17T02:31:44;4.90;;;2.70;;
19903;SDS011;10114;50.970;4.962;2023-08-17T02:34:10;9.50;;;2.97;;
19903;SDS011;10114;50.970;4.962;2023-08-17T02:36:36;6.75;;;2.85;;
19903;SDS011;10114;50.970;4.962;2023-08-17T02:39:02;8.05;;;3.10;;
19903;SDS011;10114;50.970;4.962;2023-08-17T02:41:28;7.28;;;3.42;;
19903;SDS011;10114;50.970;4.962;2023-08-17T02:43:57;6.13;;;3.30;;
19903;SDS011;10114;50.970;4.962;2023-08-17T02:46:23;7.70;;;3.10;;
19903;SDS011;10114;50.970;4.962;2023-08-17T02:48:49;6.68;;;3.40;;
19903;SDS011;10114;50.970;4.962;2023-08-17T02:51:16;8.45;;;3.20;;
19903;SDS011;10114;50.970;4.962;2023-08-17T02:53:42;7.82;;;3.55;;
19903;SDS011;10114;50.970;4.962;2023-08-17T02:56:08;6.18;;;2.97;;
19903;SDS011;10114;50.970;4.962;2023-08-17T02:58:37;6.50;;;2.90;;
19903;SDS011;10114;50.970;4.962;2023-08-17T03:01:05;5.65;;;2.85;;
19903;SDS011;10114;50.970;4.962;2023-08-17T03:03:31;5.70;;;3.20;;
19903;SDS011;10114;50.970;4.962;2023-08-17T03:05:57;5.28;;;2.88;;
19903;SDS011;10114;50.970;4.962;2023-08-17T03:08:23;5.75;;;2.78;;
19903;SDS011;10114;50.970;4.962;2023-08-17T03:10:49;11.07;;;2.90;;
19903;SDS011;10114;50.970;4.962;2023-08-17T03:13:15;6.65;;;2.90;;
19903;SDS011;10114;50.970;4.962;2023-08-17T03:15:42;6.05;;;2.90;;
19903;SDS011;10114;50.970;4.962;2023-08-17T03:18:08;6.20;;;2.70;;
19903;SDS011;10114;50.970;4.962;2023-08-17T03:20:34;8.05;;;2.80;;
19903;SDS011;10114;50.970;4.962;2023-08-17T03:23:00;5.68;;;2.50;;
19903;SDS011;10114;50.970;4.962;2023-08-17T03:25:26;6.97;;;2.53;;
19903;SDS011;10114;50.970;4.962;2023-08-17T03:27:52;5.00;;;2.72;;
19903;SDS011;10114;50.970;4.962;2023-08-17T03:30:18;6.85;;;2.90;;
19903;SDS011;10114;50.970;4.962;2023-08-17T03:32:44;8.02;;;3.15;;
19903;SDS011;10114;50.970;4.962;2023-08-17T03:35:10;7.47;;;3.10;;
19903;SDS011;10114;50.970;4.962;2023-08-17T03:37:38;6.50;;;3.00;;
19903;SDS011;10114;50.970;4.962;2023-08-17T03:40:04;4.60;;;2.65;;
19903;SDS011;10114;50.970;4.962;2023-08-17T03:42:30;6.28;;;3.28;;
19903;SDS011;10114;50.970;4.962;2023-08-17T03:44:56;6.90;;;2.90;;
19903;SDS011;10114;50.970;4.962;2023-08-17T03:47:22;7.70;;;3.25;;
19903;SDS011;10114;50.970;4.962;2023-08-17T03:49:48;7.85;;;2.83;;
19903;SDS011;10114;50.970;4.962;2023-08-17T03:52:14;6.93;;;2.65;;
19903;SDS011;10114;50.970;4.962;2023-08-17T03:54:40;5.13;;;2.83;;
19903;SDS011;10114;50.970;4.962;2023-08-17T03:57:06;10.90;;;2.80;;
19903;SDS011;10114;50.970;4.962;2023-08-17T03:59:33;5.63;;;2.80;;
19903;SDS011;10114;50.970;4.962;2023-08-17T04:01:59;5.88;;;2.50;;
19903;SDS011;10114;50.970;4.962;2023-08-17T04:04:25;5.05;;;2.70;;
19903;SDS011;10114;50.970;4.962;2023-08-17T04:06:51;8.00;;;2.72;;
19903;SDS011;10114;50.970;4.962;2023-08-17T04:09:17;9.60;;;3.97;;
19903;SDS011;10114;50.970;4.962;2023-08-17T04:11:43;6.18;;;2.90;;
19903;SDS011;10114;50.970;4.962;2023-08-17T04:14:09;5.20;;;2.55;;
19903;SDS011;10114;50.970;4.962;2023-08-17T04:16:35;7.88;;;2.67;;
19903;SDS011;10114;50.970;4.962;2023-08-17T04:19:01;5.88;;;2.83;;
19903;SDS011;10114;50.970;4.962;2023-08-17T04:21:27;4.53;;;2.53;;
19903;SDS011;10114;50.970;4.962;2023-08-17T04:23:53;5.43;;;2.55;;
19903;SDS011;10114;50.970;4.962;2023-08-17T04:26:19;7.10;;;2.85;;
19903;SDS011;10114;50.970;4.962;2023-08-17T04:28:45;8.30;;;2.85;;
19903;SDS011;10114;50.970;4.962;2023-08-17T04:31:12;7.88;;;3.30;;
19903;SDS011;10114;50.970;4.962;2023-08-17T04:33:39;7.35;;;2.65;;
19903;SDS011;10114;50.970;4.962;2023-08-17T04:36:05;5.60;;;2.83;;
19903;SDS011;10114;50.970;4.962;2023-08-17T04:38:31;6.85;;;2.60;;
19903;SDS011;10114;50.970;4.962;2023-08-17T04:40:57;5.40;;;2.38;;
19903;SDS011;10114;50.970;4.962;2023-08-17T04:43:23;6.10;;;2.75;;
19903;SDS011;10114;50.970;4.962;2023-08-17T04:45:49;5.47;;;2.20;;
19903;SDS011;10114;50.970;4.962;2023-08-17T04:48:15;6.30;;;2.67;;
19903;SDS011;10114;50.970;4.962;2023-08-17T04:50:41;6.13;;;2.55;;
19903;SDS011;10114;50.970;4.962;2023-08-17T04:53:07;7.60;;;2.72;;
19903;SDS011;10114;50.970;4.962;2023-08-17T04:55:33;8.95;;;3.38;;
19903;SDS011;10114;50.970;4.962;2023-08-17T04:57:59;7.95;;;2.95;;
19903;SDS011;10114;50.970;4.962;2023-08-17T05:00:26;5.80;;;2.85;;
19903;SDS011;10114;50.970;4.962;2023-08-17T05:02:55;8.40;;;2.75;;
19903;SDS011;10114;50.970;4.962;2023-08-17T05:05:21;10.77;;;3.33;;
19903;SDS011;10114;50.970;4.962;2023-08-17T05:07:48;9.50;;;3.30;;
19903;SDS011;10114;50.970;4.962;2023-08-17T05:10:14;6.85;;;2.85;;
19903;SDS011;10114;50.970;4.962;2023-08-17T05:12:40;7.45;;;2.80;;
19903;SDS011;10114;50.970;4.962;2023-08-17T05:15:06;11.38;;;2.83;;
19903;SDS011;10114;50.970;4.962;2023-08-17T05:17:32;9.07;;;2.90;;
19903;SDS011;10114;50.970;4.962;2023-08-17T05:19:58;8.52;;;3.28;;
19903;SDS011;10114;50.970;4.962;2023-08-17T05:22:24;9.77;;;3.17;;
19903;SDS011;10114;50.970;4.962;2023-08-17T05:24:50;6.75;;;2.55;;
19903;SDS011;10114;50.970;4.962;2023-08-17T05:27:16;6.18;;;2.50;;
19903;SDS011;10114;50.970;4.962;2023-08-17T05:29:42;5.88;;;2.95;;
19903;SDS011;10114;50.970;4.962;2023-08-17T05:32:08;10.25;;;2.85;;
19903;SDS011;10114;50.970;4.962;2023-08-17T05:34:34;5.82;;;2.65;;
19903;SDS011;10114;50.970;4.962;2023-08-17T05:37:01;5.43;;;2.60;;
19903;SDS011;10114;50.970;4.962;2023-08-17T05:39:28;7.38;;;2.95;;
19903;SDS011;10114;50.970;4.962;2023-08-17T05:41:54;7.43;;;2.70;;
19903;SDS011;10114;50.970;4.962;2023-08-17T05:44:20;7.05;;;2.88;;
19903;SDS011;10114;50.970;4.962;2023-08-17T05:46:46;9.63;;;3.15;;
19903;SDS011;10114;50.970;4.962;2023-08-17T05:49:13;6.93;;;3.10;;
19903;SDS011;10114;50.970;4.962;2023-08-17T05:51:39;8.90;;;3.13;;
19903;SDS011;10114;50.970;4.962;2023-08-17T05:54:05;12.10;;;3.30;;
19903;SDS011;10114;50.970;4.962;2023-08-17T05:56:32;10.80;;;3.33;;
19903;SDS011;10114;50.970;4.962;2023-08-17T05:58:58;8.18;;;3.03;;
19903;SDS011;10114;50.970;4.962;2023-08-17T06:01:24;8.43;;;3.20;;
19903;SDS011;10114;50.970;4.962;2023-08-17T06:03:50;6.75;;;3.22;;
19903;SDS011;10114;50.970;4.962;2023-08-17T06:06:16;5.63;;;2.78;;
19903;SDS011;10114;50.970;4.962;2023-08-17T06:08:43;7.82;;;3.50;;
19903;SDS011;10114;50.970;4.962;2023-08-17T06:11:09;7.03;;;3.58;;
19903;SDS011;10114;50.970;4.962;2023-08-17T06:13:35;13.57;;;3.40;;
19903;SDS011;10114;50.970;4.962;2023-08-17T06:16:01;7.22;;;3.60;;
19903;SDS011;10114;50.970;4.962;2023-08-17T06:18:29;8.27;;;3.50;;
19903;SDS011;10114;50.970;4.962;2023-08-17T06:20:55;7.75;;;3.88;;
19903;SDS011;10114;50.970;4.962;2023-08-17T06:23:22;10.50;;;4.45;;
19903;SDS011;10114;50.970;4.962;2023-08-17T06:25:49;8.35;;;3.85;;
19903;SDS011;10114;50.970;4.962;2023-08-17T06:28:15;13.77;;;4.63;;
19903;SDS011;10114;50.970;4.962;2023-08-17T06:30:41;13.35;;;4.18;;
19903;SDS011;10114;50.970;4.962;2023-08-17T06:33:07;9.10;;;4.25;;
19903;SDS011;10114;50.970;4.962;2023-08-17T06:35:33;10.60;;;4.18;;
19903;SDS011;10114;50.970;4.962;2023-08-17T06:37:59;7.95;;;4.15;;
19903;SDS011;10114;50.970;4.962;2023-08-17T06:40:25;9.40;;;4.20;;
19903;SDS011;10114;50.970;4.962;2023-08-17T06:42:51;10.13;;;3.88;;
19903;SDS011;10114;50.970;4.962;2023-08-17T06:45:19;12.13;;;4.45;;
19903;SDS011;10114;50.970;4.962;2023-08-17T06:47:45;8.27;;;3.80;;
19903;SDS011;10114;50.970;4.962;2023-08-17T06:50:13;13.05;;;4.20;;
19903;SDS011;10114;50.970;4.962;2023-08-17T06:52:40;9.52;;;3.55;;
19903;SDS011;10114;50.970;4.962;2023-08-17T06:55:06;7.90;;;3.80;;
19903;SDS011;10114;50.970;4.962;2023-08-17T06:57:32;10.00;;;3.42;;
19903;SDS011;10114;50.970;4.962;2023-08-17T06:59:58;11.73;;;3.95;;
19903;SDS011;10114;50.970;4.962;2023-08-17T07:02:24;7.05;;;3.50;;
19903;SDS011;10114;50.970;4.962;2023-08-17T07:04:50;8.45;;;3.92;;
19903;SDS011;10114;50.970;4.962;2023-08-17T07:07:16;9.65;;;3.80;;
19903;SDS011;10114;50.970;4.962;2023-08-17T07:09:42;9.27;;;4.05;;
19903;SDS011;10114;50.970;4.962;2023-08-17T07:12:08;8.45;;;3.67;;
19903;SDS011;10114;50.970;4.962;2023-08-17T07:14:34;8.40;;;3.80;;
19903;SDS011;10114;50.970;4.962;2023-08-17T07:17:00;10.32;;;3.80;;
19903;SDS011;10114;50.970;4.962;2023-08-17T07:19:26;11.57;;;3.83;;
19903;SDS011;10114;50.970;4.962;2023-08-17T07:21:52;7.50;;;3.55;;
19903;SDS011;10114;50.970;4.962;2023-08-17T07:24:18;10.02;;;4.85;;
19903;SDS011;10114;50.970;4.962;2023-08-17T07:26:44;8.73;;;3.35;;
19903;SDS011;10114;50.970;4.962;2023-08-17T07:29:10;7.68;;;3.20;;
19903;SDS011;10114;50.970;4.962;2023-08-17T07:31:37;9.00;;;2.95;;
19903;SDS011;10114;50.970;4.962;2023-08-17T07:34:04;8.27;;;3.40;;
19903;SDS011;10114;50.970;4.962;2023-08-17T07:36:30;10.15;;;4.43;;
19903;SDS011;10114;50.970;4.962;2023-08-17T07:38:57;10.68;;;4.20;;
19903;SDS011;10114;50.970;4.962;2023-08-17T07:41:23;10.02;;;3.70;;
19903;SDS011;10114;50.970;4.962;2023-08-17T07:43:49;7.90;;;4.10;;
19903;SDS011;10114;50.970;4.962;2023-08-17T07:46:15;10.25;;;3.88;;
19903;SDS011;10114;50.970;4.962;2023-08-17T07:48:41;10.05;;;4.05;;
19903;SDS011;10114;50.970;4.962;2023-08-17T07:51:07;10.27;;;4.50;;
19903;SDS011;10114;50.970;4.962;2023-08-17T07:53:33;13.70;;;4.47;;
19903;SDS011;10114;50.970;4.962;2023-08-17T07:55:59;10.43;;;3.78;;
19903;SDS011;10114;50.970;4.962;2023-08-17T07:58:25;7.93;;;4.32;;
19903;SDS011;10114;50.970;4.962;2023-08-17T08:00:51;9.82;;;4.22;;
19903;SDS011;10114;50.970;4.962;2023-08-17T08:03:18;9.52;;;4.07;;
19903;SDS011;10114;50.970;4.962;2023-08-17T08:05:44;13.02;;;4.60;;
19903;SDS011;10114;50.970;4.962;2023-08-17T08:08:10;8.65;;;4.53;;
19903;SDS011;10114;50.970;4.962;2023-08-17T08:10:36;14.95;;;6.78;;
19903;SDS011;10114;50.970;4.962;2023-08-17T08:13:02;15.38;;;5.93;;
19903;SDS011;10114;50.970;4.962;2023-08-17T08:15:28;11.10;;;5.57;;
19903;SDS011;10114;50.970;4.962;2023-08-17T08:17:54;12.13;;;5.28;;
19903;SDS011;10114;50.970;4.962;2023-08-17T08:20:20;10.10;;;5.78;;
19903;SDS011;10114;50.970;4.962;2023-08-17T08:22:46;12.23;;;6.80;;
19903;SDS011;10114;50.970;4.962;2023-08-17T08:25:12;11.10;;;6.18;;
19903;SDS011;10114;50.970;4.962;2023-08-17T08:27:38;13.95;;;6.40;;
19903;SDS011;10114;50.970;4.962;2023-08-17T08:30:05;14.05;;;6.95;;
19903;SDS011;10114;50.970;4.962;2023-08-17T08:32:31;14.27;;;7.82;;
19903;SDS011;10114;50.970;4.962;2023-08-17T08:34:57;15.88;;;8.30;;
19903;SDS011;10114;50.970;4.962;2023-08-17T08:37:23;14.13;;;8.18;;
19903;SDS011;10114;50.970;4.962;2023-08-17T08:39:50;14.43;;;7.88;;
19903;SDS011;10114;50.970;4.962;2023-08-17T08:42:17;11.45;;;6.90;;
19903;SDS011;10114;50.970;4.962;2023-08-17T08:44:43;13.18;;;7.13;;
19903;SDS011;10114;50.970;4.962;2023-08-17T08:47:10;14.93;;;7.82;;
19903;SDS011;10114;50.970;4.962;2023-08-17T08:49:40;16.75;;;7.88;;
19903;SDS011;10114;50.970;4.962;2023-08-17T08:52:11;18.40;;;7.10;;
19903;SDS011;10114;50.970;4.962;2023-08-17T08:54:38;13.57;;;7.63;;
19903;SDS011;10114;50.970;4.962;2023-08-17T08:57:08;14.38;;;8.77;;
19903;SDS011;10114;50.970;4.962;2023-08-17T08:59:36;17.38;;;8.52;;
19903;SDS011;10114;50.970;4.962;2023-08-17T09:02:09;14.57;;;7.75;;
19903;SDS011;10114;50.970;4.962;2023-08-17T09:04:36;14.85;;;7.43;;
19903;SDS011;10114;50.970;4.962;2023-08-17T09:07:02;14.27;;;7.85;;
19903;SDS011;10114;50.970;4.962;2023-08-17T09:09:28;13.75;;;7.95;;
19903;SDS011;10114;50.970;4.962;2023-08-17T09:11:54;17.05;;;9.63;;
19903;SDS011;10114;50.970;4.962;2023-08-17T09:14:20;21.35;;;11.43;;
19903;SDS011;10114;50.970;4.962;2023-08-17T09:16:46;18.33;;;10.52;;
19903;SDS011;10114;50.970;4.962;2023-08-17T09:19:12;21.50;;;11.55;;
19903;SDS011;10114;50.970;4.962;2023-08-17T09:21:38;21.08;;;12.02;;
19903;SDS011;10114;50.970;4.962;2023-08-17T09:24:06;16.55;;;11.75;;
19903;SDS011;10114;50.970;4.962;2023-08-17T09:26:32;17.13;;;10.85;;
19903;SDS011;10114;50.970;4.962;2023-08-17T09:28:59;19.05;;;11.40;;
19903;SDS011;10114;50.970;4.962;2023-08-17T09:31:26;20.63;;;11.45;;
19903;SDS011;10114;50.970;4.962;2023-08-17T09:33:56;19.23;;;10.98;;
19903;SDS011;10114;50.970;4.962;2023-08-17T09:36:23;19.58;;;10.38;;
19903;SDS011;10114;50.970;4.962;2023-08-17T09:38:50;16.42;;;10.73;;
19903;SDS011;10114;50.970;4.962;2023-08-17T09:41:19;18.92;;;10.20;;
19903;SDS011;10114;50.970;4.962;2023-08-17T09:43:46;17.83;;;10.50;;
19903;SDS011;10114;50.970;4.962;2023-08-17T09:46:12;17.58;;;9.77;;
19903;SDS011;10114;50.970;4.962;2023-08-17T09:48:38;19.13;;;9.10;;
19903;SDS011;10114;50.970;4.962;2023-08-17T09:51:05;19.92;;;9.77;;
19903;SDS011;10114;50.970;4.962;2023-08-17T09:53:34;16.15;;;9.63;;
19903;SDS011;10114;50.970;4.962;2023-08-17T09:56:01;15.35;;;9.68;;
19903;SDS011;10114;50.970;4.962;2023-08-17T09:58:27;16.65;;;9.68;;
19903;SDS011;10114;50.970;4.962;2023-08-17T10:00:53;17.83;;;10.10;;
19903;SDS011;10114;50.970;4.962;2023-08-17T10:03:20;15.27;;;10.27;;
19903;SDS011;10114;50.970;4.962;2023-08-17T10:06:05;16.23;;;9.90;;
19903;SDS011;10114;50.970;4.962;2023-08-17T10:08:43;18.13;;;10.05;;
19903;SDS011;10114;50.970;4.962;2023-08-17T10:11:11;14.50;;;9.65;;
19903;SDS011;10114;50.970;4.962;2023-08-17T10:16:09;17.60;;;9.70;;
19903;SDS011;10114;50.970;4.962;2023-08-17T10:18:46;16.80;;;10.50;;
19903;SDS011;10114;50.970;4.962;2023-08-17T10:21:13;17.83;;;9.65;;
19903;SDS011;10114;50.970;4.962;2023-08-17T10:23:42;15.45;;;10.00;;
19903;SDS011;10114;50.970;4.962;2023-08-17T10:26:10;19.17;;;10.60;;
19903;SDS011;10114;50.970;4.962;2023-08-17T10:28:36;19.73;;;11.32;;
19903;SDS011;10114;50.970;4.962;2023-08-17T10:31:03;16.98;;;10.90;;
19903;SDS011;10114;50.970;4.962;2023-08-17T10:33:29;16.20;;;10.95;;
19903;SDS011;10114;50.970;4.962;2023-08-17T10:35:55;18.50;;;10.77;;
19903;SDS011;10114;50.970;4.962;2023-08-17T10:38:22;17.73;;;11.27;;
19903;SDS011;10114;50.970;4.962;2023-08-17T10:41:07;17.35;;;10.82;;
19903;SDS011;10114;50.970;4.962;2023-08-17T10:43:33;21.48;;;11.07;;
19903;SDS011;10114;50.970;4.962;2023-08-17T10:46:33;19.55;;;11.45;;
19903;SDS011;10114;50.970;4.962;2023-08-17T10:48:52;18.27;;;9.93;;
19903;SDS011;10114;50.970;4.962;2023-08-17T10:51:18;17.42;;;9.55;;
19903;SDS011;10114;50.970;4.962;2023-08-17T10:53:49;14.05;;;9.18;;
19903;SDS011;10114;50.970;4.962;2023-08-17T10:56:18;13.77;;;8.95;;
19903;SDS011;10114;50.970;4.962;2023-08-17T10:58:44;16.63;;;9.65;;
19903;SDS011;10114;50.970;4.962;2023-08-17T11:01:10;19.98;;;11.77;;
19903;SDS011;10114;50.970;4.962;2023-08-17T11:03:36;18.52;;;11.75;;
19903;SDS011;10114;50.970;4.962;2023-08-17T11:06:15;20.85;;;11.77;;
19903;SDS011;10114;50.970;4.962;2023-08-17T11:08:52;18.65;;;11.40;;
19903;SDS011;10114;50.970;4.962;2023-08-17T11:11:20;16.80;;;10.40;;
19903;SDS011;10114;50.970;4.962;2023-08-17T11:13:47;19.90;;;10.77;;
19903;SDS011;10114;50.970;4.962;2023-08-17T11:16:14;16.92;;;10.90;;
19903;SDS011;10114;50.970;4.962;2023-08-17T11:18:40;19.30;;;10.50;;
19903;SDS011;10114;50.970;4.962;2023-08-17T11:21:07;17.23;;;10.23;;
19903;SDS011;10114;50.970;4.962;2023-08-17T11:23:35;21.42;;;9.35;;
19903;SDS011;10114;50.970;4.962;2023-08-17T11:26:02;13.88;;;8.95;;
19903;SDS011;10114;50.970;4.962;2023-08-17T11:28:31;18.05;;;9.18;;
19903;SDS011;10114;50.970;4.962;2023-08-17T11:31:01;17.52;;;9.13;;
19903;SDS011;10114;50.970;4.962;2023-08-17T11:33:28;18.23;;;10.18;;
19903;SDS011;10114;50.970;4.962;2023-08-17T11:35:55;21.63;;;10.32;;
19903;SDS011;10114;50.970;4.962;2023-08-17T11:38:21;12.90;;;8.88;;
19903;SDS011;10114;50.970;4.962;2023-08-17T11:40:51;17.48;;;9.00;;
19903;SDS011;10114;50.970;4.962;2023-08-17T11:43:18;15.32;;;8.85;;
19903;SDS011;10114;50.970;4.962;2023-08-17T11:45:45;19.23;;;8.38;;
19903;SDS011;10114;50.970;4.962;2023-08-17T11:48:11;14.38;;;9.07;;
19903;SDS011;10114;50.970;4.962;2023-08-17T11:50:38;14.55;;;9.15;;
19903;SDS011;10114;50.970;4.962;2023-08-17T11:53:07;14.32;;;9.30;;
19903;SDS011;10114;50.970;4.962;2023-08-17T11:55:33;18.75;;;8.52;;
19903;SDS011;10114;50.970;4.962;2023-08-17T11:57:59;16.40;;;8.18;;
19903;SDS011;10114;50.970;4.962;2023-08-17T12:00:25;13.73;;;8.25;;
19903;SDS011;10114;50.970;4.962;2023-08-17T12:02:51;15.50;;;9.25;;
19903;SDS011;10114;50.970;4.962;2023-08-17T12:05:21;19.77;;;10.18;;
19903;SDS011;10114;50.970;4.962;2023-08-17T12:07:49;14.80;;;8.93;;
19903;SDS011;10114;50.970;4.962;2023-08-17T12:10:15;21.63;;;8.63;;
19903;SDS011;10114;50.970;4.962;2023-08-17T12:12:41;16.52;;;9.57;;
19903;SDS011;10114;50.970;4.962;2023-08-17T12:15:08;17.67;;;8.93;;
19903;SDS011;10114;50.970;4.962;2023-08-17T12:17:35;17.38;;;10.32;;
19903;SDS011;10114;50.970;4.962;2023-08-17T12:20:02;23.42;;;10.60;;
19903;SDS011;10114;50.970;4.962;2023-08-17T12:22:28;21.15;;;10.70;;
19903;SDS011;10114;50.970;4.962;2023-08-17T12:24:54;18.73;;;10.68;;
19903;SDS011;10114;50.970;4.962;2023-08-17T12:27:21;15.20;;;9.20;;
19903;SDS011;10114;50.970;4.962;2023-08-17T12:29:49;18.88;;;9.68;;
19903;SDS011;10114;50.970;4.962;2023-08-17T12:32:16;15.05;;;9.80;;
19903;SDS011;10114;50.970;4.962;2023-08-17T12:34:42;17.05;;;9.65;;
19903;SDS011;10114;50.970;4.962;2023-08-17T12:37:12;19.52;;;10.45;;
19903;SDS011;10114;50.970;4.962;2023-08-17T12:39:38;18.45;;;10.20;;
19903;SDS011;10114;50.970;4.962;2023-08-17T12:42:04;18.58;;;10.07;;
19903;SDS011;10114;50.970;4.962;2023-08-17T12:44:31;21.20;;;11.27;;
19903;SDS011;10114;50.970;4.962;2023-08-17T12:46:57;18.55;;;10.30;;
19903;SDS011;10114;50.970;4.962;2023-08-17T12:49:23;20.02;;;10.90;;
19903;SDS011;10114;50.970;4.962;2023-08-17T12:51:49;21.35;;;10.95;;
19903;SDS011;10114;50.970;4.962;2023-08-17T12:54:15;18.15;;;10.80;;
19903;SDS011;10114;50.970;4.962;2023-08-17T12:56:41;20.30;;;10.98;;
19903;SDS011;10114;50.970;4.962;2023-08-17T12:59:07;19.15;;;11.50;;
19903;SDS011;10114;50.970;4.962;2023-08-17T13:01:33;19.17;;;10.75;;
19903;SDS011;10114;50.970;4.962;2023-08-17T13:03:59;19.55;;;10.93;;
19903;SDS011;10114;50.970;4.962;2023-08-17T13:06:25;22.85;;;10.43;;
19903;SDS011;10114;50.970;4.962;2023-08-17T13:08:51;18.00;;;10.02;;
19903;SDS011;10114;50.970;4.962;2023-08-17T13:11:17;21.45;;;11.27;;
19903;SDS011;10114;50.970;4.962;2023-08-17T13:13:43;19.02;;;11.32;;
19903;SDS011;10114;50.970;4.962;2023-08-17T13:16:09;20.33;;;11.48;;
19903;SDS011;10114;50.970;4.962;2023-08-17T13:18:36;17.58;;;10.85;;
19903;SDS011;10114;50.970;4.962;2023-08-17T13:21:03;20.25;;;10.88;;
19903;SDS011;10114;50.970;4.962;2023-08-17T13:23:29;18.33;;;10.55;;
19903;SDS011;10114;50.970;4.962;2023-08-17T13:25:55;19.38;;;11.00;;
19903;SDS011;10114;50.970;4.962;2023-08-17T13:28:21;21.13;;;11.77;;
19903;SDS011;10114;50.970;4.962;2023-08-17T13:30:47;21.65;;;10.77;;
19903;SDS011;10114;50.970;4.962;2023-08-17T13:33:13;20.00;;;11.10;;
19903;SDS011;10114;50.970;4.962;2023-08-17T13:35:41;16.52;;;10.80;;
19903;SDS011;10114;50.970;4.962;2023-08-17T13:38:07;20.05;;;10.68;;
19903;SDS011;10114;50.970;4.962;2023-08-17T13:40:33;18.15;;;10.95;;
19903;SDS011;10114;50.970;4.962;2023-08-17T13:43:01;18.40;;;10.15;;
19903;SDS011;10114;50.970;4.962;2023-08-17T13:45:28;19.88;;;11.05;;
19903;SDS011;10114;50.970;4.962;2023-08-17T13:47:54;17.63;;;10.43;;
19903;SDS011;10114;50.970;4.962;2023-08-17T13:50:20;21.85;;;11.52;;
19903;SDS011;10114;50.970;4.962;2023-08-17T13:52:46;19.85;;;11.18;;
19903;SDS011;10114;50.970;4.962;2023-08-17T13:55:12;24.13;;;12.77;;
19903;SDS011;10114;50.970;4.962;2023-08-17T13:57:38;22.83;;;10.50;;
19903;SDS011;10114;50.970;4.962;2023-08-17T14:00:05;17.75;;;10.90;;
19903;SDS011;10114;50.970;4.962;2023-08-17T14:02:31;19.92;;;10.25;;
19903;SDS011;10114;50.970;4.962;2023-08-17T14:04:57;21.35;;;11.00;;
19903;SDS011;10114;50.970;4.962;2023-08-17T14:07:23;21.50;;;11.07;;
19903;SDS011;10114;50.970;4.962;2023-08-17T14:09:49;20.60;;;12.13;;
19903;SDS011;10114;50.970;4.962;2023-08-17T14:12:15;20.25;;;11.15;;
19903;SDS011;10114;50.970;4.962;2023-08-17T14:14:41;20.42;;;11.60;;
19903;SDS011;10114;50.970;4.962;2023-08-17T14:17:07;19.85;;;10.90;;
19903;SDS011;10114;50.970;4.962;2023-08-17T14:19:33;19.33;;;11.77;;
19903;SDS011;10114;50.970;4.962;2023-08-17T14:21:59;20.02;;;11.40;;
19903;SDS011;10114;50.970;4.962;2023-08-17T14:24:26;18.10;;;11.68;;
19903;SDS011;10114;50.970;4.962;2023-08-17T14:26:52;21.38;;;11.50;;
19903;SDS011;10114;50.970;4.962;2023-08-17T14:29:18;19.08;;;11.68;;
19903;SDS011;10114;50.970;4.962;2023-08-17T14:31:44;23.63;;;11.60;;
19903;SDS011;10114;50.970;4.962;2023-08-17T14:34:10;21.50;;;11.27;;
19903;SDS011;10114;50.970;4.962;2023-08-17T14:36:36;21.50;;;10.93;;
19903;SDS011;10114;50.970;4.962;2023-08-17T14:39:02;18.48;;;11.20;;
19903;SDS011;10114;50.970;4.962;2023-08-17T14:41:28;21.55;;;11.35;;
19903;SDS011;10114;50.970;4.962;2023-08-17T14:43:58;21.00;;;11.82;;